createdAt,value
2023-05-25T00:00:39.932Z,0.00
2023-05-25T00:01:36.934Z,0.00
2023-05-25T00:02:35.990Z,0.00
2023-05-25T00:03:35.980Z,0.00
2023-05-25T00:04:35.916Z,0.00
2023-05-25T00:05:35.869Z,0.00
2023-05-25T00:06:35.854Z,0.00
2023-05-25T00:07:35.859Z,0.00
2023-05-25T00:08:35.829Z,0.00
2023-05-25T00:09:35.810Z,0.00
2023-05-25T00:10:35.810Z,0.00
2023-05-25T00:11:35.822Z,0.00
2023-05-25T00:12:35.783Z,0.00
2023-05-25T00:13:35.780Z,0.00
2023-05-25T00:14:35.757Z,0.00
2023-05-25T00:15:35.756Z,0.00
2023-05-25T00:16:35.788Z,0.00
2023-05-25T00:17:35.796Z,0.00
2023-05-25T00:18:35.730Z,0.00
2023-05-25T00:19:35.716Z,0.00
2023-05-25T00:20:35.810Z,0.00
2023-05-25T00:21:35.733Z,0.00
2023-05-25T00:22:35.699Z,0.00
2023-05-25T00:23:35.687Z,0.00
2023-05-25T00:24:35.678Z,0.00
2023-05-25T00:25:35.650Z,0.00
2023-05-25T00:26:35.626Z,0.00
2023-05-25T00:27:35.647Z,0.00
2023-05-25T00:28:35.612Z,0.00
2023-05-25T00:29:35.628Z,0.00
2023-05-25T00:30:35.617Z,0.00
2023-05-25T00:31:35.836Z,0.00
2023-05-25T00:32:35.600Z,0.00
2023-05-25T00:33:35.568Z,0.00
2023-05-25T00:34:35.554Z,0.00
2023-05-25T00:35:35.578Z,0.00
2023-05-25T00:36:35.524Z,0.00
2023-05-25T00:37:35.525Z,0.00
2023-05-25T00:38:35.517Z,0.00
2023-05-25T00:39:35.505Z,0.00
2023-05-25T00:40:35.477Z,0.00
2023-05-25T00:41:35.494Z,0.00
2023-05-25T00:42:35.521Z,0.00
2023-05-25T00:43:35.472Z,0.00
2023-05-25T00:44:35.481Z,0.00
2023-05-25T00:45:35.469Z,0.00
2023-05-25T00:46:35.453Z,0.00
2023-05-25T00:47:35.428Z,0.00
2023-05-25T00:48:35.410Z,0.00
2023-05-25T00:49:35.393Z,0.00
2023-05-25T00:50:35.380Z,0.00
2023-05-25T00:51:35.372Z,0.00
2023-05-25T00:52:35.381Z,0.00
2023-05-25T00:53:35.373Z,0.00
2023-05-25T00:54:35.327Z,0.00
2023-05-25T00:55:35.332Z,0.00
2023-05-25T00:56:35.300Z,0.00
2023-05-25T00:57:35.318Z,0.00
2023-05-25T00:58:35.313Z,0.00
2023-05-25T00:59:35.314Z,0.00
2023-05-25T01:00:35.292Z,0.00
2023-05-25T01:01:35.276Z,0.00
2023-05-25T01:02:35.311Z,0.00
2023-05-25T01:03:35.332Z,0.00
2023-05-25T01:04:35.251Z,0.00
2023-05-25T01:05:35.221Z,0.00
2023-05-25T01:06:35.210Z,0.00
2023-05-25T01:07:35.200Z,0.00
2023-05-25T01:08:35.185Z,0.00
2023-05-25T01:09:35.173Z,0.00
2023-05-25T01:10:35.156Z,0.00
2023-05-25T01:11:35.157Z,0.00
2023-05-25T01:12:35.160Z,0.00
2023-05-25T01:13:35.141Z,0.00
2023-05-25T01:14:35.111Z,0.00
2023-05-25T01:15:35.119Z,0.00
2023-05-25T01:16:35.132Z,0.00
2023-05-25T01:17:35.167Z,0.00
2023-05-25T01:18:35.074Z,0.00
2023-05-25T01:19:35.110Z,0.00
2023-05-25T01:20:35.135Z,0.00
2023-05-25T01:21:35.065Z,0.00
2023-05-25T01:22:35.049Z,0.00
2023-05-25T01:23:35.053Z,0.00
2023-05-25T01:24:35.006Z,0.00
2023-05-25T01:25:35.021Z,0.00
2023-05-25T01:26:34.994Z,0.00
2023-05-25T01:27:34.986Z,0.00
2023-05-25T01:28:34.970Z,0.00
2023-05-25T01:29:34.960Z,0.00
2023-05-25T01:30:34.967Z,0.00
2023-05-25T01:31:34.965Z,0.00
2023-05-25T01:32:34.989Z,0.00
2023-05-25T01:33:34.898Z,0.00
2023-05-25T01:34:55.958Z,0.00
2023-05-25T01:35:35.007Z,0.00
2023-05-25T01:36:34.928Z,0.00
2023-05-25T01:37:34.878Z,0.00
2023-05-25T01:38:34.881Z,0.00
2023-05-25T01:39:34.858Z,0.00
2023-05-25T01:40:34.865Z,0.00
2023-05-25T01:41:34.860Z,0.00
2023-05-25T01:42:35.143Z,0.00
2023-05-25T01:43:34.812Z,0.00
2023-05-25T01:44:34.818Z,0.00
2023-05-25T01:45:34.779Z,0.00
2023-05-25T01:46:34.917Z,0.00
2023-05-25T01:47:34.798Z,0.00
2023-05-25T01:48:34.755Z,0.00
2023-05-25T01:49:34.739Z,0.00
2023-05-25T01:50:34.764Z,0.00
2023-05-25T01:51:34.726Z,0.00
2023-05-25T01:52:34.863Z,0.00
2023-05-25T01:53:34.700Z,0.00
2023-05-25T01:54:34.693Z,0.00
2023-05-25T01:55:34.718Z,0.00
2023-05-25T01:56:34.686Z,0.00
2023-05-25T01:57:34.672Z,0.00
2023-05-25T01:58:34.657Z,0.00
2023-05-25T01:59:34.628Z,0.00
2023-05-25T02:00:34.658Z,0.00
2023-05-25T02:01:34.675Z,0.00
2023-05-25T02:02:34.634Z,0.00
2023-05-25T02:03:34.581Z,0.00
2023-05-25T02:04:34.669Z,0.00
2023-05-25T02:05:34.598Z,0.00
2023-05-25T02:06:34.581Z,0.00
2023-05-25T02:07:34.558Z,0.00
2023-05-25T02:08:34.551Z,0.00
2023-05-25T02:09:34.645Z,0.00
2023-05-25T02:10:34.524Z,0.00
2023-05-25T02:11:34.532Z,0.00
2023-05-25T02:12:34.510Z,0.00
2023-05-25T02:13:36.212Z,0.00
2023-05-25T02:14:34.473Z,0.00
2023-05-25T02:15:34.535Z,0.00
2023-05-25T02:16:34.559Z,0.00
2023-05-25T02:17:34.452Z,0.00
2023-05-25T02:18:34.467Z,0.00
2023-05-25T02:19:34.423Z,0.00
2023-05-25T02:20:34.451Z,0.00
2023-05-25T02:21:34.416Z,0.00
2023-05-25T02:22:34.396Z,0.00
2023-05-25T02:23:34.393Z,0.00
2023-05-25T02:24:34.380Z,0.00
2023-05-25T02:25:34.359Z,0.00
2023-05-25T02:26:34.364Z,0.00
2023-05-25T02:27:34.307Z,0.00
2023-05-25T02:28:34.336Z,0.00
2023-05-25T02:29:34.309Z,0.00
2023-05-25T02:30:34.300Z,0.00
2023-05-25T02:31:34.365Z,0.00
2023-05-25T02:32:34.332Z,0.00
2023-05-25T02:33:34.419Z,0.00
2023-05-25T02:34:34.273Z,0.00
2023-05-25T02:35:34.256Z,0.00
2023-05-25T02:36:34.256Z,0.00
2023-05-25T02:37:34.232Z,0.00
2023-05-25T02:38:34.238Z,0.00
2023-05-25T02:39:34.261Z,0.00
2023-05-25T02:40:34.182Z,0.00
2023-05-25T02:41:34.186Z,0.00
2023-05-25T02:42:34.172Z,0.00
2023-05-25T02:43:34.169Z,0.00
2023-05-25T02:44:34.168Z,0.00
2023-05-25T02:45:34.129Z,0.00
2023-05-25T02:46:34.170Z,0.00
2023-05-25T02:47:34.184Z,0.00
2023-05-25T02:48:34.097Z,0.00
2023-05-25T02:49:34.105Z,0.00
2023-05-25T02:50:34.069Z,0.00
2023-05-25T02:51:34.078Z,0.00
2023-05-25T02:52:34.051Z,0.00
2023-05-25T02:53:34.046Z,0.00
2023-05-25T02:54:34.040Z,0.00
2023-05-25T02:55:34.032Z,0.00
2023-05-25T02:56:34.038Z,0.00
2023-05-25T02:57:34.011Z,0.00
2023-05-25T02:58:34.022Z,0.00
2023-05-25T02:59:34.005Z,0.00
2023-05-25T03:00:34.033Z,0.00
2023-05-25T03:01:34.004Z,0.00
2023-05-25T03:02:33.962Z,0.00
2023-05-25T03:03:34.010Z,0.00
2023-05-25T03:04:33.940Z,4.00
2023-05-25T03:05:33.940Z,4.00
2023-05-25T03:06:33.903Z,0.00
2023-05-25T03:07:33.890Z,4.00
2023-05-25T03:08:33.913Z,4.00
2023-05-25T03:09:33.870Z,4.00
2023-05-25T03:10:33.886Z,4.00
2023-05-25T03:11:33.858Z,4.00
2023-05-25T03:12:33.834Z,8.00
2023-05-25T03:13:33.828Z,8.00
2023-05-25T03:14:33.840Z,8.00
2023-05-25T03:15:33.806Z,12.00
2023-05-25T03:16:33.802Z,12.00
2023-05-25T03:17:33.827Z,12.00
2023-05-25T03:18:33.792Z,16.00
2023-05-25T03:19:33.761Z,16.00
2023-05-25T03:20:33.844Z,20.00
2023-05-25T03:21:33.744Z,24.00
2023-05-25T03:22:33.739Z,24.00
2023-05-25T03:23:33.721Z,32.00
2023-05-25T03:24:33.733Z,32.00
2023-05-25T03:25:33.685Z,32.00
2023-05-25T03:26:33.716Z,40.00
2023-05-25T03:27:33.815Z,44.00
2023-05-25T03:28:33.667Z,48.00
2023-05-25T03:29:33.649Z,52.00
2023-05-25T03:30:33.658Z,56.00
2023-05-25T03:31:33.671Z,64.00
2023-05-25T03:32:33.703Z,68.00
2023-05-25T03:33:33.601Z,76.00
2023-05-25T03:34:33.630Z,80.00
2023-05-25T03:35:33.601Z,88.00
2023-05-25T03:36:33.596Z,96.00
2023-05-25T03:37:33.569Z,108.00
2023-05-25T03:38:33.563Z,112.00
2023-05-25T03:39:33.551Z,124.00
2023-05-25T03:40:33.560Z,132.00
2023-05-25T03:41:33.544Z,140.00
2023-05-25T03:42:33.545Z,152.00
2023-05-25T03:43:33.555Z,160.00
2023-05-25T03:44:33.505Z,172.00
2023-05-25T03:45:33.497Z,184.00
2023-05-25T03:46:33.563Z,196.00
2023-05-25T03:47:33.531Z,208.00
2023-05-25T03:48:33.503Z,216.00
2023-05-25T03:49:33.429Z,228.00
2023-05-25T03:50:33.428Z,240.00
2023-05-25T03:51:33.419Z,252.00
2023-05-25T03:52:33.413Z,264.00
2023-05-25T03:53:33.438Z,276.00
2023-05-25T03:54:33.373Z,288.00
2023-05-25T03:55:33.400Z,300.00
2023-05-25T03:56:33.372Z,312.00
2023-05-25T03:57:33.359Z,324.00
2023-05-25T03:58:33.361Z,336.00
2023-05-25T03:59:33.350Z,348.00
2023-05-25T04:00:33.325Z,360.00
2023-05-25T04:01:33.341Z,372.00
2023-05-25T04:02:33.401Z,384.00
2023-05-25T04:03:33.620Z,396.00
2023-05-25T04:04:33.324Z,408.00
2023-05-25T04:05:33.272Z,420.00
2023-05-25T04:06:33.254Z,432.00
2023-05-25T04:07:33.267Z,440.00
2023-05-25T04:08:33.251Z,452.00
2023-05-25T04:09:33.231Z,468.00
2023-05-25T04:10:33.213Z,476.00
2023-05-25T04:11:33.203Z,488.00
2023-05-25T04:12:33.205Z,496.00
2023-05-25T04:13:33.170Z,508.00
2023-05-25T04:14:33.235Z,520.00
2023-05-25T04:15:33.163Z,528.00
2023-05-25T04:16:33.256Z,540.00
2023-05-25T04:17:33.197Z,548.00
2023-05-25T04:18:33.159Z,560.00
2023-05-25T04:19:33.122Z,568.00
2023-05-25T04:20:33.197Z,580.00
2023-05-25T04:21:33.107Z,588.00
2023-05-25T04:22:33.106Z,596.00
2023-05-25T04:23:33.090Z,608.00
2023-05-25T04:24:33.065Z,616.00
2023-05-25T04:25:33.063Z,628.00
2023-05-25T04:26:33.039Z,636.00
2023-05-25T04:27:33.045Z,644.00
2023-05-25T04:28:33.040Z,652.00
2023-05-25T04:29:33.032Z,660.00
2023-05-25T04:30:32.995Z,672.00
2023-05-25T04:31:33.099Z,680.00
2023-05-25T04:32:33.017Z,684.00
2023-05-25T04:33:32.954Z,696.00
2023-05-25T04:34:32.945Z,704.00
2023-05-25T04:35:32.975Z,712.00
2023-05-25T04:36:32.947Z,720.00
2023-05-25T04:37:32.933Z,728.00
2023-05-25T04:38:32.895Z,740.00
2023-05-25T04:39:32.975Z,744.00
2023-05-25T04:40:32.888Z,756.00
2023-05-25T04:41:32.887Z,764.00
2023-05-25T04:42:32.853Z,772.00
2023-05-25T04:43:32.868Z,780.00
2023-05-25T04:44:32.841Z,784.00
2023-05-25T04:45:32.906Z,796.00
2023-05-25T04:46:32.894Z,800.00
2023-05-25T04:47:32.861Z,812.00
2023-05-25T04:48:32.820Z,816.00
2023-05-25T04:49:32.803Z,824.00
2023-05-25T04:50:32.772Z,832.00
2023-05-25T04:51:32.770Z,840.00
2023-05-25T04:52:32.774Z,848.00
2023-05-25T04:53:32.747Z,852.00
2023-05-25T04:54:32.724Z,860.00
2023-05-25T04:55:32.727Z,864.00
2023-05-25T04:56:32.729Z,872.00
2023-05-25T04:57:32.717Z,880.00
2023-05-25T04:58:32.718Z,884.00
2023-05-25T04:59:32.688Z,892.00
2023-05-25T05:00:32.658Z,896.00
2023-05-25T05:01:32.708Z,904.00
2023-05-25T05:02:32.675Z,908.00
2023-05-25T05:03:32.709Z,920.00
2023-05-25T05:04:32.627Z,924.00
2023-05-25T05:05:32.608Z,932.00
2023-05-25T05:06:32.619Z,940.00
2023-05-25T05:07:32.603Z,948.00
2023-05-25T05:08:32.586Z,956.00
2023-05-25T05:09:32.577Z,960.00
2023-05-25T05:10:32.557Z,968.00
2023-05-25T05:11:32.573Z,976.00
2023-05-25T05:12:32.532Z,984.00
2023-05-25T05:13:32.533Z,984.00
2023-05-25T05:14:32.534Z,992.00
2023-05-25T05:15:32.509Z,1000.00
2023-05-25T05:16:32.529Z,1004.00
2023-05-25T05:17:32.534Z,1008.00
2023-05-25T05:18:32.484Z,1012.00
2023-05-25T05:19:32.474Z,1016.00
2023-05-25T05:20:32.479Z,1020.00
2023-05-25T05:21:32.470Z,1028.00
2023-05-25T05:22:32.446Z,1032.00
2023-05-25T05:23:32.451Z,1036.00
2023-05-25T05:24:32.426Z,1044.00
2023-05-25T05:25:32.418Z,1052.00
2023-05-25T05:26:44.160Z,1060.00
2023-05-25T05:27:33.401Z,1064.00
2023-05-25T05:28:32.389Z,1068.00
2023-05-25T05:29:32.363Z,1076.00
2023-05-25T05:30:32.449Z,1080.00
2023-05-25T05:31:32.374Z,1088.00
2023-05-25T05:32:32.413Z,1092.00
2023-05-25T05:33:32.694Z,1096.00
2023-05-25T05:34:32.894Z,1104.00
2023-05-25T05:35:32.885Z,1116.00
2023-05-25T05:36:41.855Z,1120.00
2023-05-25T05:37:33.261Z,1124.00
2023-05-25T05:38:32.593Z,1132.00
2023-05-25T05:39:32.292Z,1132.00
2023-05-25T05:40:32.266Z,1144.00
2023-05-25T05:41:32.222Z,1152.00
2023-05-25T05:42:32.252Z,1156.00
2023-05-25T05:43:32.215Z,1164.00
2023-05-25T05:44:32.222Z,1176.00
2023-05-25T05:45:32.192Z,1184.00
2023-05-25T05:46:32.194Z,1192.00
2023-05-25T05:47:32.200Z,1200.00
2023-05-25T05:48:32.153Z,1208.00
2023-05-25T05:49:32.206Z,1212.00
2023-05-25T05:50:32.111Z,1220.00
2023-05-25T05:51:32.141Z,1224.00
2023-05-25T05:52:32.129Z,1228.00
2023-05-25T05:53:32.114Z,1228.00
2023-05-25T05:54:32.123Z,1232.00
2023-05-25T05:55:32.074Z,1240.00
2023-05-25T05:56:32.078Z,1248.00
2023-05-25T05:57:32.062Z,1252.00
2023-05-25T05:58:32.043Z,1264.00
2023-05-25T05:59:32.048Z,1272.00
2023-05-25T06:00:32.074Z,1284.00
2023-05-25T06:01:32.153Z,1288.00
2023-05-25T06:02:32.109Z,1300.00
2023-05-25T06:03:32.436Z,1304.00
2023-05-25T06:04:32.405Z,1312.00
2023-05-25T06:05:32.209Z,1320.00
2023-05-25T06:06:31.957Z,1336.00
2023-05-25T06:07:31.977Z,1336.00
2023-05-25T06:08:31.929Z,1344.00
2023-05-25T06:09:31.943Z,1348.00
2023-05-25T06:10:31.900Z,1352.00
2023-05-25T06:11:31.916Z,1360.00
2023-05-25T06:12:31.904Z,1368.00
2023-05-25T06:13:31.891Z,1376.00
2023-05-25T06:14:32.847Z,1380.00
2023-05-25T06:15:32.504Z,1384.00
2023-05-25T06:16:31.922Z,1384.00
2023-05-25T06:17:31.876Z,1380.00
2023-05-25T06:18:31.827Z,1384.00
2023-05-25T06:19:32.534Z,1384.00
2023-05-25T06:20:31.858Z,1388.00
2023-05-25T06:21:31.817Z,1388.00
2023-05-25T06:22:31.843Z,1392.00
2023-05-25T06:23:31.784Z,1396.00
2023-05-25T06:24:31.761Z,1400.00
2023-05-25T06:25:31.753Z,1400.00
2023-05-25T06:26:31.742Z,1400.00
2023-05-25T06:27:31.721Z,1392.00
2023-05-25T06:28:31.708Z,1392.00
2023-05-25T06:29:31.710Z,1396.00
2023-05-25T06:30:31.864Z,1400.00
2023-05-25T06:31:31.734Z,1404.00
2023-05-25T06:32:31.712Z,1404.00
2023-05-25T06:33:31.703Z,1404.00
2023-05-25T06:34:31.768Z,1408.00
2023-05-25T06:35:31.654Z,1412.00
2023-05-25T06:36:32.232Z,1412.00
2023-05-25T06:37:31.639Z,1412.00
2023-05-25T06:38:31.605Z,1416.00
2023-05-25T06:39:31.621Z,1420.00
2023-05-25T06:40:31.599Z,1424.00
2023-05-25T06:41:31.582Z,1432.00
2023-05-25T06:42:31.579Z,1436.00
2023-05-25T06:43:31.566Z,1440.00
2023-05-25T06:44:31.557Z,1444.00
2023-05-25T06:45:31.541Z,1476.00
2023-05-25T06:46:31.647Z,1652.00
2023-05-25T06:47:31.601Z,2096.00
2023-05-25T06:48:31.486Z,2144.00
2023-05-25T06:49:31.521Z,2536.00
2023-05-25T06:50:31.490Z,2596.00
2023-05-25T06:51:31.462Z,2728.00
2023-05-25T06:52:31.473Z,2976.00
2023-05-25T06:53:31.462Z,3484.00
2023-05-25T06:54:31.437Z,3848.00
2023-05-25T06:55:31.434Z,3864.00
2023-05-25T06:56:31.420Z,3872.00
2023-05-25T06:57:31.414Z,4260.00
2023-05-25T06:58:31.393Z,4380.00
2023-05-25T06:59:31.445Z,4236.00
2023-05-25T07:00:31.382Z,4068.00
2023-05-25T07:01:31.425Z,4024.00
2023-05-25T07:02:31.373Z,4148.00
2023-05-25T07:03:31.350Z,4236.00
2023-05-25T07:04:31.354Z,4144.00
2023-05-25T07:05:31.400Z,3836.00
2023-05-25T07:06:31.323Z,3752.00
2023-05-25T07:07:31.290Z,3588.00
2023-05-25T07:08:31.287Z,3680.00
2023-05-25T07:09:31.304Z,3804.00
2023-05-25T07:10:31.269Z,3900.00
2023-05-25T07:11:31.265Z,4032.00
2023-05-25T07:12:31.275Z,4012.00
2023-05-25T07:13:31.236Z,4088.00
2023-05-25T07:14:31.230Z,4344.00
2023-05-25T07:15:31.229Z,4388.00
2023-05-25T07:16:31.250Z,4432.00
2023-05-25T07:17:31.196Z,4344.00
2023-05-25T07:18:31.173Z,4452.00
2023-05-25T07:19:31.185Z,4376.00
2023-05-25T07:20:31.206Z,4408.00
2023-05-25T07:21:31.175Z,4196.00
2023-05-25T07:22:31.142Z,3752.00
2023-05-25T07:23:31.137Z,3528.00
2023-05-25T07:24:31.128Z,3656.00
2023-05-25T07:25:31.131Z,3832.00
2023-05-25T07:26:31.131Z,3800.00
2023-05-25T07:27:31.098Z,3568.00
2023-05-25T07:28:31.064Z,3356.00
2023-05-25T07:29:31.058Z,3760.00
2023-05-25T07:30:31.071Z,3788.00
2023-05-25T07:31:31.074Z,3924.00
2023-05-25T07:32:31.084Z,4188.00
2023-05-25T07:33:31.040Z,4044.00
2023-05-25T07:34:30.993Z,4080.00
2023-05-25T07:35:31.017Z,3920.00
2023-05-25T07:36:30.997Z,3540.00
2023-05-25T07:37:30.977Z,3672.00
2023-05-25T07:38:30.963Z,3880.00
2023-05-25T07:39:31.906Z,3968.00
2023-05-25T07:40:30.965Z,3832.00
2023-05-25T07:41:30.926Z,4020.00
2023-05-25T07:42:30.916Z,4240.00
2023-05-25T07:43:30.908Z,4812.00
2023-05-25T07:44:30.898Z,4820.00
2023-05-25T07:45:32.860Z,4608.00
2023-05-25T07:46:31.001Z,4672.00
2023-05-25T07:47:30.941Z,4960.00
2023-05-25T07:48:30.859Z,4776.00
2023-05-25T07:49:30.852Z,4936.00
2023-05-25T07:50:31.928Z,4996.00
2023-05-25T07:51:30.849Z,5208.00
2023-05-25T07:52:30.882Z,5180.00
2023-05-25T07:53:30.798Z,5084.00
2023-05-25T07:54:30.823Z,4872.00
2023-05-25T07:55:30.802Z,5424.00
2023-05-25T07:56:31.301Z,5568.00
2023-05-25T07:57:30.789Z,5652.00
2023-05-25T07:58:31.436Z,5868.00
2023-05-25T07:59:30.756Z,5908.00
2023-05-25T08:00:30.858Z,5964.00
2023-05-25T08:01:30.786Z,6044.00
2023-05-25T08:02:32.862Z,6052.00
2023-05-25T08:03:44.312Z,6148.00
2023-05-25T08:04:32.445Z,6236.00
2023-05-25T08:05:30.707Z,6176.00
2023-05-25T08:06:31.035Z,6312.00
2023-05-25T08:07:30.682Z,6088.00
2023-05-25T08:08:31.405Z,6080.00
2023-05-25T08:09:30.656Z,5872.00
2023-05-25T08:10:31.362Z,5976.00
2023-05-25T08:11:30.624Z,6124.00
2023-05-25T08:12:46.648Z,6016.00
2023-05-25T08:13:31.593Z,5864.00
2023-05-25T08:14:30.682Z,6244.00
2023-05-25T08:15:30.565Z,6224.00
2023-05-25T08:16:30.592Z,5628.00
2023-05-25T08:17:30.598Z,4440.00
2023-05-25T08:18:30.532Z,3672.00
2023-05-25T08:19:30.524Z,4036.00
2023-05-25T08:20:30.571Z,3924.00
2023-05-25T08:21:31.372Z,3488.00
2023-05-25T08:22:30.505Z,2984.00
2023-05-25T08:23:30.481Z,3084.00
2023-05-25T08:24:30.466Z,3100.00
2023-05-25T08:25:30.477Z,2888.00
2023-05-25T08:26:45.450Z,3176.00
2023-05-25T08:27:34.426Z,3964.00
2023-05-25T08:28:30.431Z,3984.00
2023-05-25T08:29:30.402Z,4576.00
2023-05-25T08:30:30.414Z,4968.00
2023-05-25T08:31:30.513Z,5588.00
2023-05-25T08:32:30.387Z,6008.00
2023-05-25T08:33:30.361Z,6284.00
2023-05-25T08:34:30.365Z,6128.00
2023-05-25T08:35:30.348Z,5972.00
2023-05-25T08:36:30.346Z,5980.00
2023-05-25T08:37:30.313Z,5668.00
2023-05-25T08:38:30.315Z,5512.00
2023-05-25T08:39:30.898Z,5108.00
2023-05-25T08:40:30.304Z,5432.00
2023-05-25T08:41:30.261Z,5124.00
2023-05-25T08:42:30.257Z,5204.00
2023-05-25T08:43:30.268Z,5836.00
2023-05-25T08:44:30.253Z,6512.00
2023-05-25T08:45:49.982Z,6616.00
2023-05-25T08:46:31.259Z,6836.00
2023-05-25T08:47:30.232Z,6592.00
2023-05-25T08:48:39.901Z,6088.00
2023-05-25T08:49:31.260Z,5576.00
2023-05-25T08:50:30.187Z,4928.00
2023-05-25T08:51:30.180Z,5180.00
2023-05-25T08:52:30.156Z,5552.00
2023-05-25T08:53:30.160Z,5844.00
2023-05-25T08:54:30.179Z,5952.00
2023-05-25T08:55:30.117Z,6104.00
2023-05-25T08:56:30.134Z,6084.00
2023-05-25T08:57:30.086Z,5612.00
2023-05-25T08:58:30.089Z,6344.00
2023-05-25T08:59:30.085Z,6104.00
2023-05-25T09:00:30.071Z,6708.00
2023-05-25T09:01:30.075Z,6968.00
2023-05-25T09:02:30.167Z,6432.00
2023-05-25T09:03:30.092Z,6048.00
2023-05-25T09:04:30.032Z,5888.00
2023-05-25T09:05:30.301Z,5668.00
2023-05-25T09:06:30.007Z,5976.00
2023-05-25T09:07:30.000Z,5272.00
2023-05-25T09:08:29.997Z,5084.00
2023-05-25T09:09:29.969Z,5136.00
2023-05-25T09:10:29.966Z,4376.00
2023-05-25T09:11:38.540Z,4696.00
2023-05-25T09:12:30.953Z,5244.00
2023-05-25T09:13:29.925Z,5588.00
2023-05-25T09:14:29.917Z,6204.00
2023-05-25T09:15:29.908Z,6048.00
2023-05-25T09:16:29.970Z,6068.00
2023-05-25T09:17:29.916Z,6420.00
2023-05-25T09:18:29.939Z,7416.00
2023-05-25T09:19:29.882Z,7708.00
2023-05-25T09:20:29.901Z,7900.00
2023-05-25T09:21:29.830Z,7032.00
2023-05-25T09:22:29.838Z,6228.00
2023-05-25T09:23:29.832Z,6536.00
2023-05-25T09:24:29.801Z,6332.00
2023-05-25T09:25:29.788Z,6848.00
2023-05-25T09:26:29.812Z,7416.00
2023-05-25T09:27:29.765Z,7740.00
2023-05-25T09:28:29.801Z,7364.00
2023-05-25T09:29:29.786Z,7864.00
2023-05-25T09:30:29.750Z,7292.00
2023-05-25T09:31:29.779Z,7324.00
2023-05-25T09:32:29.862Z,7872.00
2023-05-25T09:33:29.720Z,8200.00
2023-05-25T09:34:29.729Z,8612.00
2023-05-25T09:35:29.700Z,8100.00
2023-05-25T09:36:29.748Z,7788.00
2023-05-25T09:37:29.822Z,8008.00
2023-05-25T09:38:30.102Z,8344.00
2023-05-25T09:39:29.733Z,7796.00
2023-05-25T09:40:29.667Z,7892.00
2023-05-25T09:41:30.598Z,7916.00
2023-05-25T09:42:29.634Z,7504.00
2023-05-25T09:43:41.373Z,7760.00
2023-05-25T09:44:30.600Z,6864.00
2023-05-25T09:45:29.599Z,7024.00
2023-05-25T09:46:29.657Z,7412.00
2023-05-25T09:47:29.609Z,8048.00
2023-05-25T09:48:29.581Z,8288.00
2023-05-25T09:49:29.591Z,8360.00
2023-05-25T09:50:29.584Z,7932.00
2023-05-25T09:51:29.510Z,7584.00
2023-05-25T09:52:29.562Z,7176.00
2023-05-25T09:53:29.528Z,6880.00
2023-05-25T09:54:29.513Z,6892.00
2023-05-25T09:55:40.044Z,6616.00
2023-05-25T09:56:30.470Z,5180.00
2023-05-25T09:57:29.442Z,4936.00
2023-05-25T09:58:29.477Z,4644.00
2023-05-25T09:59:29.448Z,5392.00
2023-05-25T10:00:29.420Z,5416.00
2023-05-25T10:01:29.483Z,5052.00
2023-05-25T10:02:29.430Z,4500.00
2023-05-25T10:03:29.382Z,4248.00
2023-05-25T10:04:29.398Z,4144.00
2023-05-25T10:05:29.403Z,4116.00
2023-05-25T10:06:29.387Z,3888.00
2023-05-25T10:07:29.432Z,4428.00
2023-05-25T10:08:29.363Z,4580.00
2023-05-25T10:09:29.330Z,4328.00
2023-05-25T10:10:29.336Z,4440.00
2023-05-25T10:11:29.451Z,4392.00
2023-05-25T10:12:29.309Z,4400.00
2023-05-25T10:13:29.292Z,5024.00
2023-05-25T10:14:30.012Z,5048.00
2023-05-25T10:15:29.264Z,5252.00
2023-05-25T10:16:29.480Z,6148.00
2023-05-25T10:17:29.267Z,6484.00
2023-05-25T10:18:29.218Z,6476.00
2023-05-25T10:19:29.228Z,7552.00
2023-05-25T10:20:31.577Z,6684.00
2023-05-25T10:21:29.210Z,7260.00
2023-05-25T10:22:29.178Z,6652.00
2023-05-25T10:23:29.161Z,5412.00
2023-05-25T10:24:29.166Z,5720.00
2023-05-25T10:25:29.180Z,7524.00
2023-05-25T10:26:29.143Z,7868.00
2023-05-25T10:27:29.136Z,7332.00
2023-05-25T10:28:29.138Z,7580.00
2023-05-25T10:29:29.100Z,8096.00
2023-05-25T10:30:29.116Z,8344.00
2023-05-25T10:31:29.276Z,8084.00
2023-05-25T10:32:29.149Z,8484.00
2023-05-25T10:34:29.058Z,8672.00
2023-05-25T10:35:30.053Z,8212.00
2023-05-25T10:36:29.024Z,7996.00
2023-05-25T10:37:29.010Z,8656.00
2023-05-25T10:38:29.042Z,9080.00
2023-05-25T10:39:29.022Z,8972.00
2023-05-25T10:40:28.995Z,8972.00
2023-05-25T10:41:29.004Z,8980.00
2023-05-25T10:42:28.968Z,8588.00
2023-05-25T10:43:28.962Z,8400.00
2023-05-25T10:44:28.926Z,9332.00
2023-05-25T10:45:28.929Z,10572.00
2023-05-25T10:46:28.943Z,11444.00
2023-05-25T10:47:28.937Z,12304.00
2023-05-25T10:48:28.926Z,12128.00
2023-05-25T10:49:28.895Z,11740.00
2023-05-25T10:50:28.886Z,11760.00
2023-05-25T10:51:28.888Z,11340.00
2023-05-25T10:52:28.923Z,11344.00
2023-05-25T10:53:28.852Z,11916.00
2023-05-25T10:54:28.837Z,11664.00
2023-05-25T10:55:28.828Z,12412.00
2023-05-25T10:56:28.844Z,12856.00
2023-05-25T10:57:28.804Z,11908.00
2023-05-25T10:58:28.796Z,10176.00
2023-05-25T10:59:28.782Z,10292.00
2023-05-25T11:00:28.792Z,10396.00
2023-05-25T11:01:28.897Z,10700.00
2023-05-25T11:02:28.788Z,11452.00
2023-05-25T11:03:28.736Z,11164.00
2023-05-25T11:04:28.756Z,9912.00
2023-05-25T11:05:28.758Z,10036.00
2023-05-25T11:06:28.710Z,11224.00
2023-05-25T11:07:28.707Z,11208.00
2023-05-25T11:08:28.694Z,12064.00
2023-05-25T11:09:28.663Z,12156.00
2023-05-25T11:10:28.692Z,12652.00
2023-05-25T11:11:28.648Z,12496.00
2023-05-25T11:12:28.644Z,12468.00
2023-05-25T11:13:28.626Z,13192.00
2023-05-25T11:14:28.635Z,13644.00
2023-05-25T11:15:28.605Z,12596.00
2023-05-25T11:16:28.654Z,13648.00
2023-05-25T11:17:28.603Z,13332.00
2023-05-25T11:18:28.620Z,13376.00
2023-05-25T11:19:28.586Z,12772.00
2023-05-25T11:20:28.622Z,12152.00
2023-05-25T11:21:28.574Z,11820.00
2023-05-25T11:22:28.579Z,11800.00
2023-05-25T11:23:28.549Z,12632.00
2023-05-25T11:24:28.517Z,13348.00
2023-05-25T11:25:28.855Z,13392.00
2023-05-25T11:26:28.548Z,13496.00
2023-05-25T11:27:28.473Z,12848.00
2023-05-25T11:28:28.524Z,12672.00
2023-05-25T11:29:28.519Z,13284.00
2023-05-25T11:30:28.516Z,12856.00
2023-05-25T11:31:28.591Z,12248.00
2023-05-25T11:32:28.757Z,12272.00
2023-05-25T11:33:28.437Z,11740.00
2023-05-25T11:34:28.413Z,11936.00
2023-05-25T11:35:28.391Z,13512.00
2023-05-25T11:36:28.398Z,13348.00
2023-05-25T11:37:28.396Z,13952.00
2023-05-25T11:38:28.396Z,13252.00
2023-05-25T11:39:28.356Z,12976.00
2023-05-25T11:40:28.344Z,12360.00
2023-05-25T11:41:28.321Z,13152.00
2023-05-25T11:42:28.346Z,13968.00
2023-05-25T11:43:28.346Z,14448.00
2023-05-25T11:44:28.282Z,14916.00
2023-05-25T11:45:28.305Z,15136.00
2023-05-25T11:46:28.371Z,13280.00
2023-05-25T11:47:29.610Z,14208.00
2023-05-25T11:48:28.273Z,15712.00
2023-05-25T11:49:28.272Z,15872.00
2023-05-25T11:50:28.306Z,14736.00
2023-05-25T11:51:28.240Z,12684.00
2023-05-25T11:52:28.226Z,11360.00
2023-05-25T11:53:28.262Z,11628.00
2023-05-25T11:54:28.234Z,13052.00
2023-05-25T11:55:28.242Z,14476.00
2023-05-25T11:56:35.631Z,13980.00
2023-05-25T11:57:29.176Z,11164.00
2023-05-25T11:58:28.150Z,10364.00
2023-05-25T11:59:29.696Z,13052.00
2023-05-25T12:00:28.130Z,14208.00
2023-05-25T12:01:28.156Z,12172.00
2023-05-25T12:02:28.214Z,11568.00
2023-05-25T12:03:28.142Z,11756.00
2023-05-25T12:04:28.188Z,11668.00
2023-05-25T12:05:28.280Z,13132.00
2023-05-25T12:06:28.088Z,12692.00
2023-05-25T12:07:28.064Z,11920.00
2023-05-25T12:08:28.045Z,11836.00
2023-05-25T12:09:28.033Z,11536.00
2023-05-25T12:10:28.036Z,11528.00
2023-05-25T12:11:28.015Z,11860.00
2023-05-25T12:12:27.995Z,13524.00
2023-05-25T12:13:28.000Z,13184.00
2023-05-25T12:14:28.007Z,11748.00
2023-05-25T12:15:27.987Z,11080.00
2023-05-25T12:16:28.052Z,11348.00
2023-05-25T12:17:27.990Z,11852.00
2023-05-25T12:18:27.927Z,10728.00
2023-05-25T12:19:27.932Z,11416.00
2023-05-25T12:20:27.958Z,12180.00
2023-05-25T12:21:27.896Z,12712.00
2023-05-25T12:22:27.886Z,12864.00
2023-05-25T12:23:28.588Z,15492.00
2023-05-25T12:24:27.890Z,15584.00
2023-05-25T12:25:38.606Z,18848.00